createdAt,value
2023-01-02T17:59:30.738Z,11.81
2023-01-02T18:01:59.658Z,11.49
2023-01-02T18:04:29.644Z,12.11
2023-01-02T18:06:56.280Z,12.39
2023-01-02T18:09:24.958Z,12.44
2023-01-02T18:11:51.736Z,12.30
2023-01-02T18:14:22.420Z,12.35
2023-01-02T18:16:51.695Z,12.10
2023-01-02T18:19:18.192Z,11.97
2023-01-02T18:21:44.575Z,11.94
2023-01-02T18:24:11.005Z,12.02
2023-01-02T18:26:39.333Z,11.84
2023-01-02T18:29:16.749Z,11.91
2023-01-02T18:31:43.244Z,11.65
2023-01-02T18:34:09.637Z,11.48
2023-01-02T18:36:36.001Z,11.43
2023-01-02T18:39:02.377Z,11.66
2023-01-02T18:41:28.749Z,11.95
2023-01-02T18:43:55.112Z,12.00
2023-01-02T18:46:21.529Z,12.06
2023-01-02T18:48:47.930Z,11.73
2023-01-02T18:51:14.278Z,11.46
2023-01-02T18:53:40.658Z,11.50
2023-01-02T18:56:07.026Z,11.28
2023-01-02T18:58:33.387Z,10.84
2023-01-02T19:00:59.816Z,11.46
2023-01-02T19:03:26.292Z,11.60
2023-01-02T19:05:52.672Z,11.63
2023-01-02T19:08:19.036Z,11.40
2023-01-02T19:10:45.358Z,11.55
2023-01-02T19:13:11.708Z,11.50
2023-01-02T19:15:38.091Z,11.48
2023-01-02T19:18:04.395Z,11.27
2023-01-02T19:20:30.700Z,11.74
2023-01-02T19:22:57.019Z,11.66
2023-01-02T19:25:23.329Z,11.73
2023-01-02T19:27:49.627Z,12.06
2023-01-02T19:30:20.603Z,12.21
2023-01-02T19:32:47.153Z,12.38
2023-01-02T19:35:13.465Z,12.09
2023-01-02T19:37:39.787Z,12.09
2023-01-02T19:40:06.093Z,12.36
2023-01-02T19:42:32.407Z,12.20
2023-01-02T19:44:58.730Z,11.96
2023-01-02T19:47:25.055Z,11.81
2023-01-02T19:49:51.467Z,11.63
2023-01-02T19:52:17.785Z,11.38
2023-01-02T19:54:44.092Z,11.73
2023-01-02T19:57:10.417Z,11.37
2023-01-02T19:59:43.966Z,11.31
2023-01-02T20:02:10.562Z,11.04
2023-01-02T20:04:37.170Z,11.46
2023-01-02T20:07:03.511Z,11.29
2023-01-02T20:09:29.871Z,11.41
2023-01-02T20:11:56.209Z,11.21
2023-01-02T20:14:22.575Z,11.25
2023-01-02T20:16:48.908Z,11.37
2023-01-02T20:19:15.237Z,11.57
2023-01-02T20:21:41.572Z,11.92
2023-01-02T20:24:07.900Z,11.59
2023-01-02T20:26:34.229Z,11.48
2023-01-02T20:29:00.539Z,11.29
2023-01-02T20:31:26.976Z,11.39
2023-01-02T20:33:53.337Z,11.38
2023-01-02T20:36:19.693Z,11.52
2023-01-02T20:38:46.048Z,11.48
2023-01-02T20:41:12.424Z,11.05
2023-01-02T20:43:38.776Z,11.22
2023-01-02T20:46:05.207Z,11.46
2023-01-02T20:48:31.620Z,11.57
2023-01-02T20:50:58.021Z,11.36
2023-01-02T20:53:24.354Z,11.22
2023-01-02T20:55:50.802Z,11.16
2023-01-02T20:58:17.188Z,11.67
2023-01-02T21:00:43.679Z,11.31
2023-01-02T21:03:10.345Z,11.42
2023-01-02T21:08:23.893Z,10.43
2023-01-02T21:10:52.770Z,10.38
2023-01-02T21:16:05.579Z,10.07
2023-01-02T21:18:34.997Z,10.17
2023-01-02T21:21:10.466Z,10.03
2023-01-02T21:23:36.948Z,9.92
2023-01-02T21:26:12.083Z,10.33
2023-01-02T21:28:38.447Z,10.37
2023-01-02T21:31:04.913Z,10.50
2023-01-02T21:33:31.458Z,10.87
2023-01-02T21:35:57.913Z,10.85
2023-01-02T21:38:24.258Z,11.54
2023-01-02T21:40:50.692Z,11.07
2023-01-02T21:43:17.115Z,11.26
2023-01-02T21:45:43.551Z,10.95
2023-01-02T21:48:10.048Z,11.16
2023-01-02T21:50:36.570Z,10.71
2023-01-02T21:53:04.195Z,10.90
2023-01-02T21:55:30.594Z,11.10
2023-01-02T21:58:13.695Z,11.39
2023-01-02T22:00:40.488Z,11.31
2023-01-02T22:03:07.048Z,10.77
2023-01-02T22:05:33.614Z,11.03
2023-01-02T22:08:00.001Z,11.20
2023-01-02T22:10:26.525Z,10.93
2023-01-02T22:12:52.931Z,11.00
2023-01-02T22:15:19.354Z,11.20
2023-01-02T22:17:45.789Z,11.44
2023-01-02T22:20:12.401Z,11.35
2023-01-02T22:22:38.837Z,11.57
2023-01-02T22:25:05.368Z,11.28
2023-01-02T22:27:31.758Z,11.51
2023-01-02T22:32:44.441Z,10.70
2023-01-02T22:35:10.819Z,11.16
2023-01-02T22:37:37.182Z,11.40
2023-01-02T22:40:03.547Z,11.29
2023-01-02T22:42:59.087Z,11.25
2023-01-02T22:45:16.580Z,11.80
2023-01-02T22:47:42.958Z,11.23
2023-01-02T22:50:12.276Z,9.83
2023-01-02T22:52:46.491Z,10.72
2023-01-02T22:55:12.856Z,11.28
2023-01-02T22:57:39.242Z,11.00
2023-01-02T23:00:05.651Z,11.39
2023-01-02T23:02:31.979Z,11.56
2023-01-02T23:04:58.370Z,11.30
2023-01-02T23:07:25.049Z,11.04
2023-01-02T23:09:51.583Z,11.40
2023-01-02T23:12:18.043Z,11.03
2023-01-02T23:14:44.532Z,10.78
2023-01-02T23:17:10.889Z,11.15
2023-01-02T23:19:37.467Z,10.99
2023-01-02T23:22:03.885Z,11.12
2023-01-02T23:24:32.342Z,11.28
2023-01-02T23:26:58.891Z,11.05
2023-01-02T23:29:25.236Z,11.28
2023-01-02T23:31:51.669Z,9.48
2023-01-02T23:34:18.103Z,10.26
2023-01-02T23:36:44.484Z,10.46
2023-01-02T23:39:10.908Z,10.94
2023-01-02T23:44:26.584Z,11.09
2023-01-02T23:46:53.036Z,11.25
2023-01-02T23:49:19.371Z,11.13
2023-01-02T23:51:45.802Z,11.41
2023-01-02T23:54:13.662Z,11.46
2023-01-02T23:56:40.187Z,11.42
2023-01-02T23:59:06.595Z,11.58
